sensor_id;sensor_type;location;lat;lon;timestamp;P1;durP1;ratioP1;P2;durP2;ratioP2
70406;SDS011;57821;52.202;0.154;2022-09-16T07:10:42;9.18;;;2.00;;
70406;SDS011;57821;52.202;0.154;2022-09-16T07:13:08;7.22;;;1.75;;
70406;SDS011;57821;52.202;0.154;2022-09-16T07:15:35;6.57;;;1.77;;
70406;SDS011;57821;52.202;0.154;2022-09-16T07:18:21;8.43;;;1.85;;
70406;SDS011;57821;52.202;0.154;2022-09-16T07:20:47;7.20;;;1.88;;
70406;SDS011;57821;52.202;0.154;2022-09-16T07:23:14;6.20;;;1.60;;
70406;SDS011;57821;52.202;0.154;2022-09-16T07:25:41;5.57;;;1.80;;
70406;SDS011;57821;52.202;0.154;2022-09-16T07:28:07;9.15;;;2.03;;
70406;SDS011;57821;52.202;0.154;2022-09-16T07:30:33;8.55;;;2.00;;
70406;SDS011;57821;52.202;0.154;2022-09-16T07:33:00;5.07;;;1.67;;
70406;SDS011;57821;52.202;0.154;2022-09-16T07:35:26;7.15;;;1.77;;
70406;SDS011;57821;52.202;0.154;2022-09-16T07:37:53;6.18;;;1.35;;
70406;SDS011;57821;52.202;0.154;2022-09-16T07:40:19;4.72;;;1.63;;
70406;SDS011;57821;52.202;0.154;2022-09-16T07:42:46;8.00;;;1.98;;
70406;SDS011;57821;52.202;0.154;2022-09-16T07:45:12;4.45;;;1.27;;
70406;SDS011;57821;52.202;0.154;2022-09-16T07:47:39;5.90;;;1.30;;
70406;SDS011;57821;52.202;0.154;2022-09-16T07:50:06;6.05;;;1.30;;
70406;SDS011;57821;52.202;0.154;2022-09-16T07:52:33;7.78;;;1.25;;
70406;SDS011;57821;52.202;0.154;2022-09-16T07:54:59;5.53;;;1.52;;
70406;SDS011;57821;52.202;0.154;2022-09-16T07:57:26;4.55;;;1.45;;
70406;SDS011;57821;52.202;0.154;2022-09-16T07:59:52;6.45;;;1.17;;
70406;SDS011;57821;52.202;0.154;2022-09-16T08:02:18;7.72;;;1.25;;
70406;SDS011;57821;52.202;0.154;2022-09-16T08:04:45;5.90;;;1.30;;
70406;SDS011;57821;52.202;0.154;2022-09-16T08:07:11;5.75;;;1.20;;
70406;SDS011;57821;52.202;0.154;2022-09-16T08:09:38;5.38;;;1.30;;
70406;SDS011;57821;52.202;0.154;2022-09-16T08:12:15;3.50;;;1.13;;
70406;SDS011;57821;52.202;0.154;2022-09-16T08:14:42;4.85;;;1.20;;
70406;SDS011;57821;52.202;0.154;2022-09-16T08:17:08;6.97;;;1.50;;
70406;SDS011;57821;52.202;0.154;2022-09-16T08:19:35;5.05;;;1.08;;
70406;SDS011;57821;52.202;0.154;2022-09-16T08:22:01;7.25;;;1.42;;
70406;SDS011;57821;52.202;0.154;2022-09-16T08:24:28;4.90;;;1.10;;
70406;SDS011;57821;52.202;0.154;2022-09-16T08:26:54;2.08;;;0.60;;
70406;SDS011;57821;52.202;0.154;2022-09-16T08:29:26;5.63;;;0.77;;
70406;SDS011;57821;52.202;0.154;2022-09-16T08:31:52;4.60;;;1.13;;
70406;SDS011;57821;52.202;0.154;2022-09-16T08:34:19;3.75;;;1.20;;
70406;SDS011;57821;52.202;0.154;2022-09-16T08:36:45;6.70;;;0.82;;
70406;SDS011;57821;52.202;0.154;2022-09-16T08:39:12;4.70;;;0.93;;
70406;SDS011;57821;52.202;0.154;2022-09-16T08:47:07;6.25;;;0.73;;
70406;SDS011;57821;52.202;0.154;2022-09-16T08:49:43;3.85;;;0.70;;
70406;SDS011;57821;52.202;0.154;2022-09-16T08:52:31;4.05;;;0.80;;
70406;SDS011;57821;52.202;0.154;2022-09-16T08:55:09;3.72;;;0.68;;
70406;SDS011;57821;52.202;0.154;2022-09-16T08:57:47;5.75;;;0.70;;
70406;SDS011;57821;52.202;0.154;2022-09-16T09:00:19;4.57;;;0.70;;
70406;SDS011;57821;52.202;0.154;2022-09-16T09:02:59;4.30;;;0.60;;
70406;SDS011;57821;52.202;0.154;2022-09-16T09:28:21;2.03;;;0.40;;
70406;SDS011;57821;52.202;0.154;2022-09-16T09:33:35;4.93;;;0.70;;
70406;SDS011;57821;52.202;0.154;2022-09-16T09:36:19;2.42;;;0.60;;
70406;SDS011;57821;52.202;0.154;2022-09-16T09:39:09;3.67;;;0.60;;
70406;SDS011;57821;52.202;0.154;2022-09-16T09:41:48;3.50;;;0.45;;
70406;SDS011;57821;52.202;0.154;2022-09-16T09:46:52;7.03;;;0.60;;
70406;SDS011;57821;52.202;0.154;2022-09-16T09:52:00;5.03;;;0.70;;
70406;SDS011;57821;52.202;0.154;2022-09-16T09:54:32;3.10;;;0.60;;
70406;SDS011;57821;52.202;0.154;2022-09-16T09:57:24;3.00;;;0.67;;
70406;SDS011;57821;52.202;0.154;2022-09-16T10:02:38;2.10;;;0.68;;
70406;SDS011;57821;52.202;0.154;2022-09-16T10:07:50;2.15;;;0.57;;
70406;SDS011;57821;52.202;0.154;2022-09-16T10:10:24;3.20;;;0.50;;
70406;SDS011;57821;52.202;0.154;2022-09-16T10:12:52;3.85;;;0.45;;
70406;SDS011;57821;52.202;0.154;2022-09-16T10:15:19;2.88;;;0.60;;
70406;SDS011;57821;52.202;0.154;2022-09-16T10:17:49;5.90;;;0.70;;
70406;SDS011;57821;52.202;0.154;2022-09-16T10:20:59;4.40;;;0.60;;
70406;SDS011;57821;52.202;0.154;2022-09-16T10:23:21;3.80;;;0.40;;
70406;SDS011;57821;52.202;0.154;2022-09-16T10:28:31;2.80;;;0.40;;
70406;SDS011;57821;52.202;0.154;2022-09-16T10:30:57;2.10;;;0.30;;
70406;SDS011;57821;52.202;0.154;2022-09-16T10:33:36;2.83;;;0.50;;
70406;SDS011;57821;52.202;0.154;2022-09-16T10:36:08;8.27;;;0.50;;
70406;SDS011;57821;52.202;0.154;2022-09-16T10:38:56;7.05;;;0.77;;
70406;SDS011;57821;52.202;0.154;2022-09-16T10:41:42;3.42;;;0.38;;
70406;SDS011;57821;52.202;0.154;2022-09-16T10:46:54;1.17;;;0.30;;
70406;SDS011;57821;52.202;0.154;2022-09-16T10:49:26;1.25;;;0.30;;
70406;SDS011;57821;52.202;0.154;2022-09-16T10:52:16;3.25;;;0.40;;
70406;SDS011;57821;52.202;0.154;2022-09-16T10:54:51;3.77;;;0.33;;
70406;SDS011;57821;52.202;0.154;2022-09-16T10:57:31;1.95;;;0.40;;
70406;SDS011;57821;52.202;0.154;2022-09-16T11:08:35;3.63;;;0.70;;
70406;SDS011;57821;52.202;0.154;2022-09-16T11:14:05;2.55;;;0.40;;
70406;SDS011;57821;52.202;0.154;2022-09-16T11:27:53;5.68;;;0.65;;
70406;SDS011;57821;52.202;0.154;2022-09-16T11:30:35;4.65;;;0.85;;
70406;SDS011;57821;52.202;0.154;2022-09-16T11:41:34;4.40;;;0.40;;
70406;SDS011;57821;52.202;0.154;2022-09-16T11:55:21;4.20;;;0.60;;
70406;SDS011;57821;52.202;0.154;2022-09-16T12:03:37;2.47;;;0.45;;
70406;SDS011;57821;52.202;0.154;2022-09-16T12:06:21;5.25;;;0.50;;
70406;SDS011;57821;52.202;0.154;2022-09-16T12:08:57;3.47;;;0.32;;
70406;SDS011;57821;52.202;0.154;2022-09-16T12:11:47;3.95;;;0.50;;
70406;SDS011;57821;52.202;0.154;2022-09-16T12:14:52;2.63;;;0.52;;
70406;SDS011;57821;52.202;0.154;2022-09-16T12:17:15;3.20;;;0.45;;
70406;SDS011;57821;52.202;0.154;2022-09-16T12:22:34;8.00;;;0.73;;
70406;SDS011;57821;52.202;0.154;2022-09-16T12:25:24;4.47;;;0.63;;
70406;SDS011;57821;52.202;0.154;2022-09-16T12:31:14;5.05;;;0.60;;
70406;SDS011;57821;52.202;0.154;2022-09-16T12:33:51;6.80;;;0.60;;
70406;SDS011;57821;52.202;0.154;2022-09-16T12:36:32;5.10;;;0.60;;
70406;SDS011;57821;52.202;0.154;2022-09-16T12:39:03;5.97;;;0.65;;
70406;SDS011;57821;52.202;0.154;2022-09-16T12:41:37;3.17;;;0.65;;
70406;SDS011;57821;52.202;0.154;2022-09-16T12:47:17;5.93;;;0.90;;
70406;SDS011;57821;52.202;0.154;2022-09-16T12:52:33;1.85;;;0.40;;
70406;SDS011;57821;52.202;0.154;2022-09-16T13:00:33;4.82;;;0.52;;
70406;SDS011;57821;52.202;0.154;2022-09-16T13:03:16;3.03;;;0.50;;
70406;SDS011;57821;52.202;0.154;2022-09-16T13:05:47;3.03;;;0.50;;
70406;SDS011;57821;52.202;0.154;2022-09-16T13:10:58;3.53;;;0.45;;
70406;SDS011;57821;52.202;0.154;2022-09-16T13:13:52;7.65;;;0.63;;
70406;SDS011;57821;52.202;0.154;2022-09-16T13:19:04;3.38;;;0.30;;
70406;SDS011;57821;52.202;0.154;2022-09-16T13:21:54;2.75;;;0.30;;
70406;SDS011;57821;52.202;0.154;2022-09-16T13:24:38;2.72;;;0.70;;
70406;SDS011;57821;52.202;0.154;2022-09-16T13:27:27;3.08;;;0.50;;
70406;SDS011;57821;52.202;0.154;2022-09-16T13:37:49;2.90;;;0.40;;
70406;SDS011;57821;52.202;0.154;2022-09-16T13:42:44;2.20;;;0.40;;
70406;SDS011;57821;52.202;0.154;2022-09-16T13:47:57;3.90;;;0.50;;
70406;SDS011;57821;52.202;0.154;2022-09-16T13:50:30;4.50;;;0.55;;
70406;SDS011;57821;52.202;0.154;2022-09-16T13:53:06;3.13;;;0.45;;
70406;SDS011;57821;52.202;0.154;2022-09-16T13:55:34;2.42;;;0.60;;
70406;SDS011;57821;52.202;0.154;2022-09-16T13:58:17;3.80;;;0.47;;
70406;SDS011;57821;52.202;0.154;2022-09-16T14:01:11;2.05;;;0.43;;
70406;SDS011;57821;52.202;0.154;2022-09-16T14:09:20;3.00;;;0.43;;
70406;SDS011;57821;52.202;0.154;2022-09-16T14:12:20;7.50;;;0.77;;
70406;SDS011;57821;52.202;0.154;2022-09-16T14:14:56;2.90;;;0.60;;
70406;SDS011;57821;52.202;0.154;2022-09-16T14:17:30;3.10;;;0.50;;
70406;SDS011;57821;52.202;0.154;2022-09-16T14:20:17;5.47;;;0.32;;
70406;SDS011;57821;52.202;0.154;2022-09-16T14:22:58;2.75;;;0.50;;
70406;SDS011;57821;52.202;0.154;2022-09-16T14:25:32;3.92;;;0.47;;
70406;SDS011;57821;52.202;0.154;2022-09-16T14:33:29;2.90;;;0.45;;
70406;SDS011;57821;52.202;0.154;2022-09-16T14:35:58;2.58;;;0.40;;
70406;SDS011;57821;52.202;0.154;2022-09-16T14:38:35;5.25;;;0.73;;
70406;SDS011;57821;52.202;0.154;2022-09-16T14:41:13;3.45;;;0.75;;
70406;SDS011;57821;52.202;0.154;2022-09-16T14:43:47;5.30;;;0.50;;
70406;SDS011;57821;52.202;0.154;2022-09-16T14:46:14;10.80;;;0.40;;
70406;SDS011;57821;52.202;0.154;2022-09-16T14:48:41;2.95;;;0.50;;
70406;SDS011;57821;52.202;0.154;2022-09-16T14:51:09;2.47;;;0.47;;
70406;SDS011;57821;52.202;0.154;2022-09-16T14:53:52;3.03;;;0.65;;
70406;SDS011;57821;52.202;0.154;2022-09-16T14:56:37;5.40;;;0.60;;
70406;SDS011;57821;52.202;0.154;2022-09-16T14:59:03;2.55;;;0.52;;
70406;SDS011;57821;52.202;0.154;2022-09-16T15:01:30;4.82;;;0.45;;
70406;SDS011;57821;52.202;0.154;2022-09-16T15:04:05;2.33;;;0.40;;
70406;SDS011;57821;52.202;0.154;2022-09-16T15:06:40;3.08;;;0.47;;
70406;SDS011;57821;52.202;0.154;2022-09-16T15:09:13;4.07;;;0.50;;
70406;SDS011;57821;52.202;0.154;2022-09-16T15:11:45;1.73;;;0.30;;
70406;SDS011;57821;52.202;0.154;2022-09-16T15:14:16;5.35;;;0.43;;
70406;SDS011;57821;52.202;0.154;2022-09-16T15:16:50;4.57;;;0.60;;
70406;SDS011;57821;52.202;0.154;2022-09-16T15:19:22;8.02;;;0.82;;
70406;SDS011;57821;52.202;0.154;2022-09-16T15:21:52;3.83;;;0.47;;
70406;SDS011;57821;52.202;0.154;2022-09-16T15:24:20;2.80;;;0.45;;
70406;SDS011;57821;52.202;0.154;2022-09-16T15:26:49;3.22;;;0.40;;
70406;SDS011;57821;52.202;0.154;2022-09-16T15:31:43;2.90;;;0.40;;
70406;SDS011;57821;52.202;0.154;2022-09-16T15:36:43;1.45;;;0.30;;
70406;SDS011;57821;52.202;0.154;2022-09-16T15:42:01;3.10;;;0.60;;
70406;SDS011;57821;52.202;0.154;2022-09-16T15:44:48;4.45;;;0.40;;
70406;SDS011;57821;52.202;0.154;2022-09-16T15:47:27;6.93;;;0.65;;
70406;SDS011;57821;52.202;0.154;2022-09-16T15:52:31;6.15;;;0.77;;
70406;SDS011;57821;52.202;0.154;2022-09-16T15:55:01;3.50;;;0.50;;
70406;SDS011;57821;52.202;0.154;2022-09-16T15:57:40;3.08;;;0.40;;
70406;SDS011;57821;52.202;0.154;2022-09-16T16:00:10;2.60;;;0.38;;
70406;SDS011;57821;52.202;0.154;2022-09-16T16:10:11;2.60;;;0.40;;
70406;SDS011;57821;52.202;0.154;2022-09-16T16:12:43;2.38;;;0.73;;
70406;SDS011;57821;52.202;0.154;2022-09-16T16:15:11;2.95;;;0.77;;
70406;SDS011;57821;52.202;0.154;2022-09-16T16:17:38;1.80;;;0.50;;
70406;SDS011;57821;52.202;0.154;2022-09-16T16:20:05;4.38;;;0.60;;
70406;SDS011;57821;52.202;0.154;2022-09-16T16:22:31;3.67;;;0.52;;
70406;SDS011;57821;52.202;0.154;2022-09-16T16:24:58;3.55;;;0.52;;
70406;SDS011;57821;52.202;0.154;2022-09-16T16:27:24;5.18;;;0.80;;
70406;SDS011;57821;52.202;0.154;2022-09-16T16:29:51;6.38;;;0.65;;
70406;SDS011;57821;52.202;0.154;2022-09-16T16:32:17;3.92;;;0.80;;
70406;SDS011;57821;52.202;0.154;2022-09-16T16:34:45;4.18;;;0.63;;
70406;SDS011;57821;52.202;0.154;2022-09-16T16:37:13;5.60;;;1.02;;
70406;SDS011;57821;52.202;0.154;2022-09-16T16:40:00;6.85;;;1.35;;
70406;SDS011;57821;52.202;0.154;2022-09-16T16:42:26;3.30;;;0.70;;
70406;SDS011;57821;52.202;0.154;2022-09-16T16:44:53;6.07;;;0.70;;
70406;SDS011;57821;52.202;0.154;2022-09-16T16:47:19;4.63;;;1.30;;
70406;SDS011;57821;52.202;0.154;2022-09-16T16:49:46;5.72;;;0.70;;
70406;SDS011;57821;52.202;0.154;2022-09-16T16:52:16;6.05;;;0.80;;
70406;SDS011;57821;52.202;0.154;2022-09-16T16:54:43;6.75;;;0.75;;
70406;SDS011;57821;52.202;0.154;2022-09-16T16:57:09;2.95;;;0.60;;
70406;SDS011;57821;52.202;0.154;2022-09-16T16:59:36;4.55;;;0.75;;
70406;SDS011;57821;52.202;0.154;2022-09-16T17:02:03;4.60;;;0.65;;
70406;SDS011;57821;52.202;0.154;2022-09-16T17:04:29;7.05;;;0.90;;
70406;SDS011;57821;52.202;0.154;2022-09-16T17:06:56;8.93;;;0.90;;
70406;SDS011;57821;52.202;0.154;2022-09-16T17:09:42;6.47;;;1.05;;
70406;SDS011;57821;52.202;0.154;2022-09-16T17:12:09;5.97;;;1.10;;
70406;SDS011;57821;52.202;0.154;2022-09-16T17:14:35;5.47;;;0.80;;
70406;SDS011;57821;52.202;0.154;2022-09-16T17:17:02;6.70;;;1.58;;
70406;SDS011;57821;52.202;0.154;2022-09-16T17:19:28;5.45;;;1.35;;
70406;SDS011;57821;52.202;0.154;2022-09-16T17:21:55;5.57;;;1.27;;
70406;SDS011;57821;52.202;0.154;2022-09-16T17:24:21;4.45;;;0.90;;
70406;SDS011;57821;52.202;0.154;2022-09-16T17:26:47;5.20;;;0.70;;
70406;SDS011;57821;52.202;0.154;2022-09-16T17:29:14;3.47;;;0.75;;
70406;SDS011;57821;52.202;0.154;2022-09-16T17:31:41;8.80;;;1.05;;
70406;SDS011;57821;52.202;0.154;2022-09-16T17:34:10;6.32;;;0.90;;
70406;SDS011;57821;52.202;0.154;2022-09-16T17:36:39;4.60;;;0.55;;
70406;SDS011;57821;52.202;0.154;2022-09-16T17:39:11;5.95;;;0.80;;
70406;SDS011;57821;52.202;0.154;2022-09-16T17:41:40;7.88;;;1.00;;
70406;SDS011;57821;52.202;0.154;2022-09-16T17:44:07;8.15;;;1.17;;
70406;SDS011;57821;52.202;0.154;2022-09-16T17:46:35;6.82;;;1.00;;
70406;SDS011;57821;52.202;0.154;2022-09-16T17:49:03;10.20;;;0.95;;
70406;SDS011;57821;52.202;0.154;2022-09-16T17:51:32;12.75;;;0.90;;
70406;SDS011;57821;52.202;0.154;2022-09-16T17:53:59;5.07;;;1.00;;
70406;SDS011;57821;52.202;0.154;2022-09-16T17:56:26;5.55;;;1.00;;
70406;SDS011;57821;52.202;0.154;2022-09-16T17:58:53;5.88;;;1.02;;
70406;SDS011;57821;52.202;0.154;2022-09-16T18:01:21;5.57;;;1.20;;
70406;SDS011;57821;52.202;0.154;2022-09-16T18:03:50;9.93;;;1.00;;
70406;SDS011;57821;52.202;0.154;2022-09-16T18:06:19;6.90;;;1.52;;
70406;SDS011;57821;52.202;0.154;2022-09-16T18:08:48;8.70;;;1.27;;
70406;SDS011;57821;52.202;0.154;2022-09-16T18:11:16;4.00;;;1.05;;
70406;SDS011;57821;52.202;0.154;2022-09-16T18:13:43;3.70;;;0.70;;
70406;SDS011;57821;52.202;0.154;2022-09-16T18:16:11;5.35;;;0.90;;
70406;SDS011;57821;52.202;0.154;2022-09-16T18:18:40;7.28;;;1.40;;
70406;SDS011;57821;52.202;0.154;2022-09-16T18:21:09;6.28;;;1.60;;
70406;SDS011;57821;52.202;0.154;2022-09-16T18:23:37;7.63;;;1.40;;
70406;SDS011;57821;52.202;0.154;2022-09-16T18:26:04;6.35;;;1.20;;
70406;SDS011;57821;52.202;0.154;2022-09-16T18:28:39;10.00;;;1.25;;
70406;SDS011;57821;52.202;0.154;2022-09-16T18:31:27;12.48;;;1.50;;
70406;SDS011;57821;52.202;0.154;2022-09-16T18:33:53;4.25;;;0.95;;
70406;SDS011;57821;52.202;0.154;2022-09-16T18:36:22;5.03;;;1.00;;
70406;SDS011;57821;52.202;0.154;2022-09-16T18:38:53;12.95;;;2.00;;
70406;SDS011;57821;52.202;0.154;2022-09-16T18:41:22;8.82;;;1.92;;
70406;SDS011;57821;52.202;0.154;2022-09-16T18:43:51;8.52;;;1.30;;
70406;SDS011;57821;52.202;0.154;2022-09-16T18:46:29;5.47;;;0.98;;
70406;SDS011;57821;52.202;0.154;2022-09-16T18:48:57;7.55;;;1.15;;
70406;SDS011;57821;52.202;0.154;2022-09-16T18:51:28;5.97;;;0.98;;
70406;SDS011;57821;52.202;0.154;2022-09-16T18:53:57;7.50;;;1.27;;
70406;SDS011;57821;52.202;0.154;2022-09-16T18:56:25;9.80;;;1.02;;
70406;SDS011;57821;52.202;0.154;2022-09-16T18:58:57;7.00;;;0.93;;
70406;SDS011;57821;52.202;0.154;2022-09-16T19:04:13;6.82;;;0.90;;
70406;SDS011;57821;52.202;0.154;2022-09-16T19:06:43;5.95;;;1.20;;
70406;SDS011;57821;52.202;0.154;2022-09-16T19:09:12;8.10;;;1.13;;
70406;SDS011;57821;52.202;0.154;2022-09-16T19:11:40;7.80;;;1.23;;
70406;SDS011;57821;52.202;0.154;2022-09-16T19:14:08;11.70;;;1.25;;
70406;SDS011;57821;52.202;0.154;2022-09-16T19:16:36;9.77;;;1.98;;
70406;SDS011;57821;52.202;0.154;2022-09-16T19:19:04;7.10;;;1.67;;
70406;SDS011;57821;52.202;0.154;2022-09-16T19:21:30;6.63;;;1.35;;
70406;SDS011;57821;52.202;0.154;2022-09-16T19:23:58;11.68;;;1.27;;
70406;SDS011;57821;52.202;0.154;2022-09-16T19:26:26;8.65;;;2.15;;
70406;SDS011;57821;52.202;0.154;2022-09-16T19:28:58;5.35;;;1.30;;
70406;SDS011;57821;52.202;0.154;2022-09-16T19:31:26;8.20;;;1.50;;
70406;SDS011;57821;52.202;0.154;2022-09-16T19:33:54;8.13;;;1.27;;
70406;SDS011;57821;52.202;0.154;2022-09-16T19:36:22;7.18;;;1.30;;
70406;SDS011;57821;52.202;0.154;2022-09-16T19:38:50;5.32;;;1.00;;
70406;SDS011;57821;52.202;0.154;2022-09-16T19:41:18;8.45;;;1.17;;
70406;SDS011;57821;52.202;0.154;2022-09-16T19:43:46;6.47;;;1.30;;
70406;SDS011;57821;52.202;0.154;2022-09-16T19:46:14;7.25;;;1.30;;
70406;SDS011;57821;52.202;0.154;2022-09-16T19:48:46;6.00;;;1.25;;
70406;SDS011;57821;52.202;0.154;2022-09-16T19:51:15;8.13;;;1.42;;
70406;SDS011;57821;52.202;0.154;2022-09-16T19:53:43;8.05;;;1.27;;
70406;SDS011;57821;52.202;0.154;2022-09-16T19:56:24;7.30;;;1.05;;
70406;SDS011;57821;52.202;0.154;2022-09-16T19:58:52;6.78;;;1.30;;
70406;SDS011;57821;52.202;0.154;2022-09-16T20:01:23;7.30;;;1.55;;
70406;SDS011;57821;52.202;0.154;2022-09-16T20:03:51;5.63;;;1.23;;
70406;SDS011;57821;52.202;0.154;2022-09-16T20:06:23;7.82;;;1.40;;
70406;SDS011;57821;52.202;0.154;2022-09-16T20:08:52;8.27;;;2.10;;
70406;SDS011;57821;52.202;0.154;2022-09-16T20:11:21;7.60;;;1.58;;
70406;SDS011;57821;52.202;0.154;2022-09-16T20:13:52;9.82;;;1.55;;
70406;SDS011;57821;52.202;0.154;2022-09-16T20:18:48;6.90;;;1.20;;
70406;SDS011;57821;52.202;0.154;2022-09-16T20:21:15;6.40;;;1.50;;
70406;SDS011;57821;52.202;0.154;2022-09-16T20:23:43;7.05;;;1.27;;
70406;SDS011;57821;52.202;0.154;2022-09-16T20:26:11;6.35;;;1.15;;
70406;SDS011;57821;52.202;0.154;2022-09-16T20:28:40;7.05;;;1.20;;
70406;SDS011;57821;52.202;0.154;2022-09-16T20:31:09;12.48;;;1.67;;
70406;SDS011;57821;52.202;0.154;2022-09-16T20:33:39;7.63;;;1.58;;
70406;SDS011;57821;52.202;0.154;2022-09-16T20:36:07;10.50;;;1.88;;
70406;SDS011;57821;52.202;0.154;2022-09-16T20:38:35;8.23;;;1.65;;
70406;SDS011;57821;52.202;0.154;2022-09-16T20:41:10;7.60;;;2.15;;
70406;SDS011;57821;52.202;0.154;2022-09-16T20:43:44;12.30;;;2.42;;
70406;SDS011;57821;52.202;0.154;2022-09-16T20:48:42;7.57;;;1.40;;
70406;SDS011;57821;52.202;0.154;2022-09-16T20:51:10;8.20;;;1.40;;
70406;SDS011;57821;52.202;0.154;2022-09-16T20:53:42;9.55;;;1.40;;
70406;SDS011;57821;52.202;0.154;2022-09-16T20:56:10;10.20;;;1.85;;
70406;SDS011;57821;52.202;0.154;2022-09-16T20:58:39;11.90;;;2.03;;
70406;SDS011;57821;52.202;0.154;2022-09-16T21:01:09;8.18;;;1.63;;
70406;SDS011;57821;52.202;0.154;2022-09-16T21:03:37;8.85;;;1.40;;
70406;SDS011;57821;52.202;0.154;2022-09-16T21:06:05;9.80;;;1.40;;
70406;SDS011;57821;52.202;0.154;2022-09-16T21:08:34;9.57;;;1.60;;
70406;SDS011;57821;52.202;0.154;2022-09-16T21:11:05;5.68;;;0.95;;
70406;SDS011;57821;52.202;0.154;2022-09-16T21:13:33;6.20;;;1.27;;
70406;SDS011;57821;52.202;0.154;2022-09-16T21:15:59;9.45;;;1.58;;
70406;SDS011;57821;52.202;0.154;2022-09-16T21:18:26;6.35;;;1.67;;
70406;SDS011;57821;52.202;0.154;2022-09-16T21:23:31;5.35;;;1.23;;
70406;SDS011;57821;52.202;0.154;2022-09-16T21:26:06;7.40;;;1.67;;
70406;SDS011;57821;52.202;0.154;2022-09-16T21:28:40;10.30;;;1.50;;
70406;SDS011;57821;52.202;0.154;2022-09-16T21:31:09;5.35;;;1.10;;
70406;SDS011;57821;52.202;0.154;2022-09-16T21:33:38;7.68;;;1.10;;
70406;SDS011;57821;52.202;0.154;2022-09-16T21:36:07;8.98;;;1.17;;
70406;SDS011;57821;52.202;0.154;2022-09-16T21:38:35;5.90;;;1.27;;
70406;SDS011;57821;52.202;0.154;2022-09-16T21:41:03;9.50;;;1.10;;
70406;SDS011;57821;52.202;0.154;2022-09-16T21:43:32;9.25;;;2.70;;
70406;SDS011;57821;52.202;0.154;2022-09-16T21:46:02;8.30;;;1.35;;
70406;SDS011;57821;52.202;0.154;2022-09-16T21:48:29;8.60;;;1.15;;
70406;SDS011;57821;52.202;0.154;2022-09-16T21:51:01;6.05;;;0.98;;
70406;SDS011;57821;52.202;0.154;2022-09-16T21:53:30;7.00;;;0.90;;
70406;SDS011;57821;52.202;0.154;2022-09-16T21:56:00;13.43;;;1.80;;
70406;SDS011;57821;52.202;0.154;2022-09-16T22:01:08;7.47;;;1.40;;
70406;SDS011;57821;52.202;0.154;2022-09-16T22:03:41;6.18;;;0.80;;
70406;SDS011;57821;52.202;0.154;2022-09-16T22:06:09;7.65;;;1.15;;
70406;SDS011;57821;52.202;0.154;2022-09-16T22:08:37;6.95;;;1.10;;
70406;SDS011;57821;52.202;0.154;2022-09-16T22:11:05;9.70;;;1.60;;
70406;SDS011;57821;52.202;0.154;2022-09-16T22:13:33;6.68;;;1.05;;
70406;SDS011;57821;52.202;0.154;2022-09-16T22:16:00;6.30;;;0.90;;
70406;SDS011;57821;52.202;0.154;2022-09-16T22:18:27;8.15;;;1.00;;
70406;SDS011;57821;52.202;0.154;2022-09-16T22:21:00;8.00;;;1.45;;
70406;SDS011;57821;52.202;0.154;2022-09-16T22:23:28;8.60;;;1.90;;
70406;SDS011;57821;52.202;0.154;2022-09-16T22:25:54;5.60;;;1.42;;
70406;SDS011;57821;52.202;0.154;2022-09-16T22:28:21;7.15;;;0.80;;
70406;SDS011;57821;52.202;0.154;2022-09-16T22:30:47;6.30;;;0.95;;
70406;SDS011;57821;52.202;0.154;2022-09-16T22:33:14;10.75;;;1.35;;
70406;SDS011;57821;52.202;0.154;2022-09-16T22:35:40;12.27;;;1.30;;
70406;SDS011;57821;52.202;0.154;2022-09-16T22:38:07;8.98;;;1.75;;
70406;SDS011;57821;52.202;0.154;2022-09-16T22:40:33;7.53;;;1.30;;
70406;SDS011;57821;52.202;0.154;2022-09-16T22:42:59;5.35;;;0.93;;
70406;SDS011;57821;52.202;0.154;2022-09-16T22:45:26;6.78;;;1.30;;
70406;SDS011;57821;52.202;0.154;2022-09-16T22:47:52;5.13;;;1.40;;
70406;SDS011;57821;52.202;0.154;2022-09-16T22:50:19;6.30;;;1.45;;
70406;SDS011;57821;52.202;0.154;2022-09-16T22:52:45;8.02;;;1.85;;
70406;SDS011;57821;52.202;0.154;2022-09-16T22:55:12;10.43;;;2.10;;
70406;SDS011;57821;52.202;0.154;2022-09-16T22:57:38;8.43;;;2.00;;
70406;SDS011;57821;52.202;0.154;2022-09-16T23:00:05;12.07;;;2.80;;
70406;SDS011;57821;52.202;0.154;2022-09-16T23:02:32;7.47;;;2.70;;
70406;SDS011;57821;52.202;0.154;2022-09-16T23:04:58;8.02;;;2.22;;
70406;SDS011;57821;52.202;0.154;2022-09-16T23:07:25;7.03;;;1.88;;
70406;SDS011;57821;52.202;0.154;2022-09-16T23:09:51;5.55;;;1.55;;
70406;SDS011;57821;52.202;0.154;2022-09-16T23:12:18;8.75;;;2.28;;
70406;SDS011;57821;52.202;0.154;2022-09-16T23:14:44;11.10;;;1.63;;
70406;SDS011;57821;52.202;0.154;2022-09-16T23:17:11;7.35;;;1.58;;
70406;SDS011;57821;52.202;0.154;2022-09-16T23:19:37;8.32;;;2.25;;
70406;SDS011;57821;52.202;0.154;2022-09-16T23:22:03;10.80;;;1.70;;
70406;SDS011;57821;52.202;0.154;2022-09-16T23:24:30;6.43;;;1.33;;
70406;SDS011;57821;52.202;0.154;2022-09-16T23:26:56;6.45;;;1.30;;
70406;SDS011;57821;52.202;0.154;2022-09-16T23:29:23;7.70;;;1.38;;
70406;SDS011;57821;52.202;0.154;2022-09-16T23:31:49;6.93;;;1.20;;
70406;SDS011;57821;52.202;0.154;2022-09-16T23:34:17;8.32;;;1.50;;
70406;SDS011;57821;52.202;0.154;2022-09-16T23:36:45;6.28;;;1.30;;
70406;SDS011;57821;52.202;0.154;2022-09-16T23:39:13;4.38;;;1.05;;
70406;SDS011;57821;52.202;0.154;2022-09-16T23:41:40;8.93;;;1.30;;
70406;SDS011;57821;52.202;0.154;2022-09-16T23:44:09;9.27;;;1.05;;
70406;SDS011;57821;52.202;0.154;2022-09-16T23:46:37;6.43;;;1.25;;
70406;SDS011;57821;52.202;0.154;2022-09-16T23:49:04;7.68;;;1.63;;
70406;SDS011;57821;52.202;0.154;2022-09-16T23:51:30;6.10;;;1.00;;
70406;SDS011;57821;52.202;0.154;2022-09-16T23:53:57;7.32;;;1.08;;
70406;SDS011;57821;52.202;0.154;2022-09-16T23:56:24;8.32;;;1.48;;
70406;SDS011;57821;52.202;0.154;2022-09-16T23:58:51;9.65;;;1.17;;
